Time;durP1;ratioP1;P1;durP2;ratioP2;P2;SDS_P1;SDS_P2;PMS_P1;PMS_P2;Temp;Humidity;BMP_temperature;BMP_pressure;BME280_temperature;BME280_humidity;BME280_pressure;Samples;Min_cycle;Max_cycle;Signal;HPM_P1;HPM_P2
2022/12/05 00:01:55;;;;;;;10.80;6.32;;;6.90;99.90;;;;;;5054908;28;20059;-53
2022/12/05 00:04:21;;;;;;;11.07;6.32;;;6.90;99.90;;;;;;5054845;28;20036;-53
2022/12/05 00:06:46;;;;;;;6.28;3.88;;;6.90;99.90;;;;;;5054809;28;20036;-51
2022/12/05 00:09:13;;;;;;;8.05;5.20;;;7.00;99.90;;;;;;5054882;28;20028;-54
2022/12/05 00:11:40;;;;;;;8.95;5.70;;;6.90;99.90;;;;;;5054666;28;20112;-53
2022/12/05 00:14:08;;;;;;;8.70;5.45;;;6.90;99.90;;;;;;5054595;28;20024;-54
2022/12/05 00:16:36;;;;;;;9.13;6.00;;;6.90;99.90;;;;;;5054986;28;20048;-52
2022/12/05 00:19:04;;;;;;;10.75;7.25;;;7.00;99.90;;;;;;5033328;28;20040;-52
2022/12/05 00:21:31;;;;;;;11.73;6.00;;;7.10;99.90;;;;;;5054591;28;20036;-54
2022/12/05 00:23:59;;;;;;;8.88;5.80;;;7.10;99.90;;;;;;5054414;28;20033;-52
2022/12/05 00:26:25;;;;;;;8.32;4.22;;;7.00;99.90;;;;;;5054734;28;20037;-54
2022/12/05 00:28:52;;;;;;;11.38;6.72;;;6.90;99.90;;;;;;5054834;28;20372;-52
2022/12/05 00:31:23;;;;;;;9.20;5.25;;;6.90;99.90;;;;;;5054202;28;20025;-52
2022/12/05 00:33:49;;;;;;;11.80;6.18;;;6.90;99.90;;;;;;5036518;28;20021;-54
2022/12/05 00:36:27;;;;;;;10.93;6.10;;;7.00;99.90;;;;;;5053358;28;20036;-54
2022/12/05 00:38:54;;;;;;;11.20;8.23;;;7.00;99.90;;;;;;5036219;28;20557;-52
2022/12/05 00:41:24;;;;;;;12.82;8.35;;;7.10;99.90;;;;;;5054574;28;20029;-54
2022/12/05 00:43:51;;;;;;;13.80;8.18;;;7.10;99.90;;;;;;5054423;28;20106;-54
2022/12/05 00:46:19;;;;;;;10.00;7.20;;;7.10;99.90;;;;;;5053278;28;20048;-53
2022/12/05 00:48:45;;;;;;;5.78;4.05;;;7.10;99.90;;;;;;5053118;28;20378;-51
2022/12/05 00:51:20;;;;;;;7.38;5.20;;;7.10;99.90;;;;;;5053984;28;20033;-53
2022/12/05 00:53:46;;;;;;;5.13;3.08;;;7.00;99.90;;;;;;5020226;28;20564;-53
2022/12/05 00:56:18;;;;;;;10.25;5.75;;;6.90;99.90;;;;;;5053646;28;20082;-54
2022/12/05 00:58:45;;;;;;;12.65;5.60;;;7.00;99.90;;;;;;5053869;28;20016;-52
2022/12/05 01:01:14;;;;;;;9.07;6.13;;;6.90;99.90;;;;;;5053656;28;20111;-51
2022/12/05 01:03:41;;;;;;;11.15;6.43;;;7.00;99.90;;;;;;5053728;28;20473;-54
2022/12/05 01:06:07;;;;;;;7.60;5.18;;;7.00;99.90;;;;;;5035010;28;20072;-53
2022/12/05 01:08:34;;;;;;;8.35;5.50;;;6.80;99.90;;;;;;5018777;28;20497;-53
2022/12/05 01:11:00;;;;;;;7.28;4.57;;;6.90;99.90;;;;;;5053716;28;20055;-54
2022/12/05 01:13:28;;;;;;;5.60;3.38;;;6.90;99.90;;;;;;5053656;28;20044;-53
2022/12/05 01:15:54;;;;;;;8.80;6.22;;;7.00;99.90;;;;;;5053497;28;20025;-54
2022/12/05 01:18:20;;;;;;;10.57;6.50;;;7.10;99.90;;;;;;5053881;28;20029;-54
2022/12/05 01:20:46;;;;;;;12.23;6.63;;;7.20;99.90;;;;;;5054045;28;20108;-53
2022/12/05 01:23:13;;;;;;;9.95;6.05;;;7.20;99.90;;;;;;5053390;28;20031;-51
2022/12/05 01:25:43;;;;;;;12.48;7.03;;;7.10;99.90;;;;;;4991992;28;20051;-53
2022/12/05 01:28:10;;;;;;;6.10;3.20;;;7.10;99.90;;;;;;4992082;28;20042;-54
2022/12/05 01:30:40;;;;;;;11.00;5.72;;;7.00;99.90;;;;;;4991979;28;20116;-52
2022/12/05 01:33:06;;;;;;;7.20;4.32;;;7.00;99.90;;;;;;4992073;28;20512;-53
2022/12/05 01:35:37;;;;;;;11.02;7.53;;;6.90;99.90;;;;;;4991766;28;20125;-54
2022/12/05 01:38:04;;;;;;;11.73;6.68;;;7.00;99.90;;;;;;4991804;28;20114;-54
2022/12/05 01:40:30;;;;;;;8.65;5.60;;;7.00;99.90;;;;;;4989731;28;20046;-53
2022/12/05 01:42:56;;;;;;;8.88;6.53;;;7.10;99.90;;;;;;4972474;28;20026;-54
2022/12/05 01:45:31;;;;;;;7.53;4.88;;;7.00;99.90;;;;;;4972239;28;20121;-54
2022/12/05 01:47:59;;;;;;;22.00;11.95;;;6.90;99.90;;;;;;4972096;28;20030;-54
2022/12/05 01:50:24;;;;;;;28.17;13.82;;;7.10;99.90;;;;;;4923944;28;20108;-51
2022/12/05 01:52:51;;;;;;;23.05;11.40;;;;;;;;;;4972368;28;20039;-51
2022/12/05 01:55:17;;;;;;;12.35;7.55;;;7.00;99.90;;;;;;4972292;28;20042;-52
2022/12/05 01:57:46;;;;;;;13.85;7.00;;;7.00;99.90;;;;;;5030005;28;20049;-52
2022/12/05 02:00:14;;;;;;;12.73;7.90;;;;;;;;;;5032909;28;20084;-54
2022/12/05 02:02:41;;;;;;;10.60;7.30;;;;;;;;;;5014538;28;20042;-52
2022/12/05 02:05:11;;;;;;;11.93;7.78;;;;;;;;;;5032900;28;20115;-52
2022/12/05 02:07:39;;;;;;;9.88;7.43;;;7.20;99.90;;;;;;5032999;28;20029;-51
2022/12/05 02:10:06;;;;;;;13.38;7.60;;;7.20;99.90;;;;;;5033112;28;20021;-53
2022/12/05 02:12:32;;;;;;;10.88;6.97;;;7.10;99.90;;;;;;4998346;28;20045;-52
2022/12/05 02:15:16;;;;;;;7.22;4.15;;;7.00;99.90;;;;;;5032790;28;20101;-51
2022/12/05 02:17:53;;;;;;;10.32;6.53;;;6.80;99.90;;;;;;5033097;28;20079;-51
2022/12/05 02:20:54;;;;;;;7.47;4.90;;;6.70;99.90;;;;;;5033251;28;20028;-53
2022/12/05 02:23:41;;;;;;;9.00;5.95;;;6.60;99.90;;;;;;4936635;29;20138;-54
2022/12/05 02:26:26;;;;;;;10.65;6.53;;;6.60;99.90;;;;;;4952479;29;20075;-52
2022/12/05 02:29:22;;;;;;;14.35;8.85;;;6.60;99.90;;;;;;4952808;29;20135;-54
2022/12/05 02:32:09;;;;;;;13.07;8.45;;;6.70;99.90;;;;;;4936580;29;20089;-54
2022/12/05 02:34:39;;;;;;;12.40;7.22;;;6.70;99.90;;;;;;4952666;29;20049;-52
2022/12/05 02:37:16;;;;;;;11.48;7.32;;;6.70;99.90;;;;;;4952623;29;20118;-51
2022/12/05 02:39:50;;;;;;;10.18;6.68;;;6.60;99.90;;;;;;4952224;29;20200;-54
2022/12/05 02:42:36;;;;;;;9.68;5.50;;;6.60;99.90;;;;;;4952554;29;20035;-52
2022/12/05 02:45:08;;;;;;;12.50;8.02;;;6.50;99.90;;;;;;4952399;29;20476;-52
2022/12/05 02:47:39;;;;;;;;;;;6.60;99.90;;;;;;4906450;29;20044;-54
2022/12/05 02:50:07;;;;;;;26.65;13.80;;;6.50;99.90;;;;;;4952337;29;20420;-52
2022/12/05 02:52:34;;;;;;;21.67;12.40;;;6.60;99.90;;;;;;4952296;29;20130;-54
2022/12/05 02:55:02;;;;;;;13.27;9.30;;;6.60;99.90;;;;;;4952292;29;20038;-53
2022/12/05 02:57:28;;;;;;;14.13;9.00;;;6.70;99.90;;;;;;4952542;29;20027;-52
2022/12/05 02:59:54;;;;;;;13.30;8.35;;;6.80;99.90;;;;;;4986673;28;20034;-52
2022/12/05 03:02:25;;;;;;;13.25;7.93;;;;;;;;;;5013073;28;20454;-53
2022/12/05 03:04:51;;;;;;;13.32;8.32;;;6.80;99.90;;;;;;5012491;28;20167;-52
2022/12/05 03:07:19;;;;;;;13.30;7.95;;;6.90;99.90;;;;;;4994661;28;20125;-53
2022/12/05 03:10:00;;;;;;;12.10;8.30;;;7.00;99.90;;;;;;5012504;28;20018;-52
2022/12/05 03:12:31;;;;;;;13.32;8.65;;;7.00;99.90;;;;;;5032198;28;20034;-53
2022/12/05 03:15:05;;;;;;;13.82;8.38;;;7.00;99.90;;;;;;5035795;28;20104;-52
2022/12/05 03:17:37;;;;;;;16.17;9.65;;;7.10;99.90;;;;;;5001272;28;20485;-52
2022/12/05 03:20:13;;;;;;;16.70;10.13;;;7.10;99.90;;;;;;5035726;28;20022;-53
2022/12/05 03:22:47;;;;;;;14.13;8.52;;;7.00;99.90;;;;;;5001208;28;20040;-52
2022/12/05 03:25:13;;;;;;;16.63;9.40;;;7.10;99.90;;;;;;5035675;28;20374;-54
2022/12/05 03:28:05;;;;;;;15.80;8.98;;;7.00;99.90;;;;;;5035932;28;20473;-53
2022/12/05 03:30:34;;;;;;;17.08;9.85;;;7.00;99.90;;;;;;5035607;28;20029;-52
2022/12/05 03:33:04;;;;;;;15.07;9.23;;;6.90;99.90;;;;;;5035416;28;20022;-53
2022/12/05 03:35:43;;;;;;;12.75;7.03;;;6.90;99.90;;;;;;5035626;28;20359;-52
2022/12/05 03:38:28;;;;;;;12.20;7.70;;;6.90;99.90;;;;;;5035557;28;20034;-53
2022/12/05 03:41:16;;;;;;;13.85;8.05;;;6.90;99.90;;;;;;5035408;28;20049;-52
2022/12/05 03:43:51;;;;;;;10.95;6.68;;;6.80;99.90;;;;;;5035259;28;20029;-53
2022/12/05 03:46:31;;;;;;;11.68;7.53;;;6.70;99.90;;;;;;5035277;28;20127;-54
2022/12/05 03:49:03;;;;;;;10.55;6.75;;;6.70;99.90;;;;;;5042300;28;20052;-52
2022/12/05 03:51:44;;;;;;;12.27;7.00;;;6.70;99.90;;;;;;5055220;28;20490;-54
2022/12/05 03:54:24;;;;;;;10.52;6.55;;;6.70;99.90;;;;;;5054737;28;20059;-54
2022/12/05 03:57:15;;;;;;;10.30;7.00;;;6.60;99.90;;;;;;5036407;28;20099;-52
2022/12/05 03:59:46;;;;;;;12.48;7.55;;;6.60;99.90;;;;;;5019922;28;20041;-53
2022/12/05 04:02:29;;;;;;;9.70;7.17;;;6.60;99.90;;;;;;5054925;28;20045;-54
2022/12/05 04:05:23;;;;;;;11.07;7.53;;;6.60;99.90;;;;;;5054083;28;20079;-54
2022/12/05 04:08:03;;;;;;;10.98;7.72;;;6.60;99.90;;;;;;5053948;28;20029;-51
2022/12/05 04:10:47;;;;;;;9.85;6.93;;;6.60;99.90;;;;;;5054695;28;20017;-54
2022/12/05 04:13:17;;;;;;;11.93;8.40;;;6.70;99.90;;;;;;5054636;28;20469;-51
2022/12/05 04:18:57;;;;;;;11.63;6.57;;;6.60;99.90;;;;;;4993218;28;20117;-53
2022/12/05 04:21:37;;;;;;;11.98;7.35;;;6.50;99.90;;;;;;4976711;28;20534;-53
2022/12/05 04:27:20;;;;;;;11.30;7.68;;;6.50;99.90;;;;;;4992806;28;20069;-51
2022/12/05 04:30:15;;;;;;;11.57;7.00;;;6.40;99.90;;;;;;4992390;28;20134;-52
2022/12/05 04:33:13;;;;;;;8.43;4.72;;;6.30;99.90;;;;;;4992890;28;20387;-53
2022/12/05 04:35:50;;;;;;;10.35;5.20;;;6.20;99.90;;;;;;4935003;29;20031;-54
2022/12/05 04:38:36;;;;;;;9.10;5.72;;;6.10;99.90;;;;;;4935015;29;20043;-54
2022/12/05 04:41:05;;;;;;;9.60;6.07;;;6.00;99.90;;;;;;4934750;29;20374;-53
2022/12/05 04:43:35;;;;;;;7.82;5.35;;;6.00;99.90;;;;;;4935210;29;20443;-54
2022/12/05 04:46:03;;;;;;;9.85;5.88;;;;;;;;;;4934574;29;20590;-53
2022/12/05 04:48:31;;;;;;;7.95;5.55;;;5.90;99.90;;;;;;4902993;29;20067;-52
2022/12/05 04:50:57;;;;;;;10.82;6.95;;;6.00;99.90;;;;;;4899621;29;20523;-54
2022/12/05 04:53:28;;;;;;;12.52;7.57;;;6.00;99.90;;;;;;4915964;29;20055;-54
2022/12/05 04:55:56;;;;;;;14.43;7.80;;;6.10;99.90;;;;;;4931353;29;20055;-53
2022/12/05 04:58:23;;;;;;;12.85;8.65;;;;;;;;;;4934812;29;20122;-54
2022/12/05 05:01:09;;;;;;;14.52;9.73;;;6.30;99.90;;;;;;4934518;29;20032;-54
2022/12/05 05:03:43;;;;;;;12.02;7.47;;;6.50;99.90;;;;;;4934655;29;20436;-52
2022/12/05 05:06:11;;;;;;;10.05;7.05;;;6.60;99.90;;;;;;4934308;29;20047;-52
2022/12/05 05:08:45;;;;;;;11.70;8.18;;;;;;;;;;4934445;29;20046;-53
2022/12/05 05:11:11;;;;;;;9.70;7.05;;;;;;;;;;4969795;28;20441;-51
2022/12/05 05:13:38;;;;;;;9.98;7.40;;;;;;;;;;5011890;28;20085;-54
2022/12/05 05:16:04;;;;;;;11.95;6.82;;;;;;;;;;4982511;28;20041;-53
2022/12/05 05:18:30;;;;;;;11.25;7.18;;;6.80;99.90;;;;;;5026913;28;20076;-54
2022/12/05 05:20:56;;;;;;;11.63;7.45;;;;;;;;;;5030671;28;20532;-52
2022/12/05 05:23:22;;;;;;;10.57;7.82;;;6.90;99.90;;;;;;5030463;28;20068;-52
2022/12/05 05:25:55;;;;;;;14.15;9.05;;;6.70;99.90;;;;;;5030589;28;20065;-53
2022/12/05 05:28:21;;;;;;;12.48;9.07;;;6.90;99.90;;;;;;5026847;28;20033;-52
2022/12/05 05:30:47;;;;;;;16.35;9.80;;;7.00;99.90;;;;;;5030428;28;20036;-52
2022/12/05 05:33:14;;;;;;;20.35;11.63;;;6.80;99.90;;;;;;4996695;28;20034;-53
2022/12/05 05:35:40;;;;;;;20.40;13.00;;;6.80;99.90;;;;;;5049146;28;20060;-53
2022/12/05 05:38:05;;;;;;;39.13;24.98;;;6.80;99.90;;;;;;5052567;28;20053;-55
2022/12/05 05:40:35;;;;;;;31.38;21.10;;;6.70;99.90;;;;;;5017621;28;20093;-53
2022/12/05 05:43:01;;;;;;;23.48;15.90;;;6.70;99.90;;;;;;5052405;28;20115;-54
2022/12/05 05:45:27;;;;;;;21.70;13.80;;;6.70;99.90;;;;;;5052388;28;20524;-53
2022/12/05 05:47:53;;;;;;;18.50;12.68;;;6.80;99.90;;;;;;5052488;28;20494;-52
2022/12/05 05:50:18;;;;;;;14.10;9.20;;;6.80;99.90;;;;;;5053174;28;20041;-54
2022/12/05 05:52:44;;;;;;;15.38;9.43;;;6.80;99.90;;;;;;5052893;28;20017;-51
2022/12/05 05:55:10;;;;;;;14.48;9.50;;;6.80;99.90;;;;;;5052940;28;20024;-54
2022/12/05 05:57:35;;;;;;;17.88;10.32;;;6.60;99.90;;;;;;5017787;28;20424;-55
2022/12/05 06:00:04;;;;;;;30.00;13.55;;;6.70;99.90;;;;;;5017384;28;20036;-54
2022/12/05 06:02:34;;;;;;;23.92;14.13;;;6.70;99.90;;;;;;5052397;28;20036;-54
2022/12/05 06:05:00;;;;;;;16.25;9.35;;;6.60;99.90;;;;;;5051984;28;20047;-54
2022/12/05 06:07:26;;;;;;;12.00;8.25;;;6.60;99.90;;;;;;5017109;28;20214;-54
2022/12/05 06:09:52;;;;;;;12.15;8.88;;;6.70;99.90;;;;;;5000320;28;20069;-51
2022/12/05 06:12:18;;;;;;;15.85;8.38;;;6.50;99.90;;;;;;5049710;28;20421;-52
2022/12/05 06:14:45;;;;;;;15.13;8.70;;;6.60;99.90;;;;;;5048464;28;20025;-53
2022/12/05 06:17:11;;;;;;;15.65;8.43;;;;;;;;;;5014633;28;20037;-52
2022/12/05 06:19:37;;;;;;;15.48;10.10;;;7.10;99.90;;;;;;5050254;28;20021;-53
2022/12/05 06:22:03;;;;;;;15.00;9.82;;;6.90;99.90;;;;;;5047832;28;20025;-52
2022/12/05 06:24:29;;;;;;;19.23;11.07;;;7.00;99.90;;;;;;5043324;28;20385;-53
2022/12/05 06:26:54;;;;;;;20.15;11.05;;;7.30;99.90;;;;;;5047778;28;20028;-54
2022/12/05 06:29:20;;;;;;;18.65;10.48;;;7.30;99.90;;;;;;5047395;28;20448;-53
2022/12/05 06:31:46;;;;;;;17.05;11.60;;;7.30;99.90;;;;;;5045578;28;20036;-53
2022/12/05 06:34:11;;;;;;;22.23;14.80;;;7.50;99.90;;;;;;5046758;28;20108;-52
2022/12/05 06:36:37;;;;;;;17.63;13.15;;;7.60;99.90;;;;;;4978729;28;20068;-54
2022/12/05 06:39:04;;;;;;;16.52;8.63;;;;;;;;;;5047210;28;20163;-54
2022/12/05 06:41:29;;;;;;;13.70;9.20;;;7.90;99.90;;;;;;5045932;28;20032;-52
2022/12/05 06:43:57;;;;;;;16.52;9.68;;;7.90;99.90;;;;;;5012425;28;20362;-54
2022/12/05 06:46:24;;;;;;;31.40;16.17;;;7.80;99.90;;;;;;5054177;28;20037;-55
2022/12/05 06:48:55;;;;;;;27.10;17.02;;;7.90;99.90;;;;;;5053620;28;20091;-54
2022/12/05 06:51:22;;;;;;;26.53;16.77;;;7.90;99.90;;;;;;5052300;28;20029;-54
2022/12/05 06:53:48;;;;;;;19.83;11.65;;;;;;;;;;5055759;28;20376;-52
2022/12/05 06:56:15;;;;;;;17.38;10.93;;;;;;;;;;5055489;28;20512;-55
2022/12/05 06:58:43;;;;;;;21.20;14.15;;;12.50;99.90;;;;;;5034486;28;20029;-53
2022/12/05 07:04:03;;;;;;;20.60;10.05;;;15.50;99.90;;;;;;4998056;28;20604;-53
2022/12/05 07:06:29;;;;;;;12.45;8.60;;;16.60;99.90;;;;;;5002515;28;20043;-53
2022/12/05 07:08:55;;;;;;;11.68;8.27;;;17.60;99.90;;;;;;4999080;28;20529;-53
2022/12/05 07:11:20;;;;;;;15.10;11.32;;;17.10;99.90;;;;;;5000630;28;20045;-55
2022/12/05 07:13:46;;;;;;;32.63;19.13;;;18.40;99.90;;;;;;4999754;28;20038;-53
2022/12/05 07:16:12;;;;;;;31.15;20.50;;;19.20;97.60;;;;;;5000332;28;20036;-53
2022/12/05 07:18:38;;;;;;;21.38;13.73;;;19.30;95.80;;;;;;5002932;28;20045;-53
2022/12/05 07:21:09;;;;;;;13.38;10.45;;;20.00;97.10;;;;;;5003818;28;20023;-53
2022/12/05 07:23:35;;;;;;;11.98;10.07;;;20.20;94.60;;;;;;5002177;28;20522;-54
2022/12/05 07:26:09;;;;;;;13.43;10.27;;;18.70;93.50;;;;;;5000053;28;20088;-53
2022/12/05 07:28:35;;;;;;;13.70;9.00;;;17.20;94.40;;;;;;5002957;28;20038;-52
2022/12/05 07:31:03;;;;;;;12.82;8.93;;;15.70;95.80;;;;;;5007317;28;20520;-55
2022/12/05 07:33:29;;;;;;;15.20;9.60;;;;;;;;;;5004312;28;20063;-53
2022/12/05 07:36:04;;;;;;;13.65;10.38;;;13.60;98.80;;;;;;5052237;28;20547;-53
2022/12/05 07:38:30;;;;;;;11.00;7.88;;;12.50;99.90;;;;;;5001331;28;20036;-53
2022/12/05 07:40:56;;;;;;;12.27;9.90;;;;;;;;;;5053341;28;20025;-54
2022/12/05 07:43:22;;;;;;;10.75;7.88;;;10.70;99.90;;;;;;5000709;28;20029;-53
2022/12/05 07:45:49;;;;;;;16.02;8.77;;;;;;;;;;5012562;28;20116;-53
2022/12/05 07:48:15;;;;;;;12.02;9.13;;;;;;;;;;5015464;28;20037;-55
2022/12/05 07:50:41;;;;;;;11.55;7.63;;;;;;;;;;5052756;28;20033;-54
2022/12/05 07:53:07;;;;;;;13.43;8.55;;;;;;;;;;4999966;28;20078;-53
2022/12/05 07:55:32;;;;;;;13.32;8.88;;;9.40;99.90;;;;;;5053296;28;20083;-55
2022/12/05 07:57:58;;;;;;;13.88;7.57;;;9.30;99.90;;;;;;5053158;28;20420;-54
2022/12/05 08:00:24;;;;;;;13.13;8.55;;;9.40;99.90;;;;;;4994357;28;20048;-55
2022/12/05 08:02:50;;;;;;;15.05;10.80;;;9.50;99.90;;;;;;5050480;28;20028;-55
2022/12/05 08:05:15;;;;;;;14.00;8.25;;;9.50;99.90;;;;;;5052676;28;20037;-56
2022/12/05 08:07:41;;;;;;;13.60;9.48;;;9.50;99.90;;;;;;5052612;28;20025;-54
2022/12/05 08:10:08;;;;;;;13.43;8.90;;;9.40;99.90;;;;;;5054068;28;20021;-55
2022/12/05 08:12:33;;;;;;;11.45;9.18;;;9.60;99.90;;;;;;5052837;28;20033;-52
2022/12/05 08:14:59;;;;;;;15.43;8.02;;;10.00;99.90;;;;;;5053412;28;20385;-53
2022/12/05 08:17:25;;;;;;;12.77;8.43;;;9.90;99.90;;;;;;5052326;28;20025;-54
2022/12/05 08:19:51;;;;;;;14.35;8.50;;;10.40;99.90;;;;;;5053044;28;20033;-54
2022/12/05 08:22:17;;;;;;;12.52;8.75;;;10.80;99.90;;;;;;5051748;28;20033;-55
2022/12/05 08:24:43;;;;;;;12.10;10.32;;;;;;;;;;5053332;28;20056;-55
2022/12/05 08:27:09;;;;;;;12.48;9.38;;;;;;;;;;5052834;28;20031;-55
2022/12/05 08:29:35;;;;;;;10.73;6.72;;;12.90;99.90;;;;;;5052546;28;20028;-55
2022/12/05 08:32:00;;;;;;;8.75;7.07;;;12.80;99.90;;;;;;5016728;28;20047;-56
2022/12/05 08:34:26;;;;;;;10.40;5.63;;;12.50;99.90;;;;;;5052725;28;20512;-55
2022/12/05 08:36:52;;;;;;;13.73;7.47;;;12.00;99.90;;;;;;5051023;28;20060;-55
2022/12/05 08:39:18;;;;;;;14.10;8.02;;;11.30;99.90;;;;;;5052657;28;20028;-54
2022/12/05 08:41:46;;;;;;;15.15;11.68;;;11.10;99.90;;;;;;5053536;28;20024;-54
2022/12/05 08:44:15;;;;;;;12.90;10.15;;;12.70;99.90;;;;;;5052363;28;20198;-55
2022/12/05 08:46:42;;;;;;;8.27;7.53;;;14.50;99.90;;;;;;5053027;28;20051;-53
2022/12/05 08:49:08;;;;;;;10.98;9.25;;;;;;;;;;5030117;28;20052;-52
2022/12/05 08:51:34;;;;;;;10.55;9.00;;;;;;;;;;5052870;28;20072;-55
2022/12/05 08:54:04;;;;;;;12.57;10.82;;;;;;;;;;5017900;28;20041;-54
2022/12/05 08:56:31;;;;;;;11.98;8.70;;;;;;;;;;5052803;28;20029;-53
2022/12/05 08:58:57;;;;;;;12.52;8.13;;;14.10;99.90;;;;;;5052891;28;20400;-55
2022/12/05 09:01:29;;;;;;;10.57;8.60;;;14.00;99.90;;;;;;5051469;28;20036;-55
2022/12/05 09:03:55;;;;;;;8.17;5.27;;;13.70;99.90;;;;;;5053171;28;20032;-55
2022/12/05 09:06:23;;;;;;;14.65;9.13;;;;;;;;;;5053061;28;20029;-54
2022/12/05 09:08:52;;;;;;;11.65;9.52;;;;;;;;;;5051383;28;20520;-54
2022/12/05 09:11:19;;;;;;;20.95;19.15;;;;;;;;;;5052256;28;20037;-55
2022/12/05 09:13:46;;;;;;;15.95;9.25;;;;;;;;;;5052292;28;20025;-53
2022/12/05 09:16:13;;;;;;;12.27;11.02;;;;;;;;;;5011077;28;20509;-54
2022/12/05 09:18:39;;;;;;;15.18;10.73;;;;;;;;;;5052340;28;20078;-54
2022/12/05 09:21:07;;;;;;;13.43;10.55;;;16.90;99.90;;;;;;5051680;28;20095;-52
2022/12/05 09:23:34;;;;;;;14.35;9.73;;;16.30;99.90;;;;;;5052387;28;20020;-50
2022/12/05 09:26:02;;;;;;;13.45;11.88;;;15.90;99.90;;;;;;5016617;28;20052;-51
2022/12/05 09:28:29;;;;;;;14.77;8.55;;;16.50;99.90;;;;;;5011812;28;20036;-50
2022/12/05 09:30:56;;;;;;;12.50;10.27;;;15.40;99.90;;;;;;5050951;28;20548;-49
2022/12/05 09:33:22;;;;;;;16.50;13.93;;;15.30;99.90;;;;;;5050940;28;20542;-51
2022/12/05 09:35:48;;;;;;;14.40;12.65;;;16.00;99.90;;;;;;5051007;28;20032;-50
2022/12/05 09:38:14;;;;;;;14.18;12.20;;;16.50;99.90;;;;;;5051399;28;20025;-51
2022/12/05 09:40:41;;;;;;;15.95;14.63;;;17.10;99.90;;;;;;5009686;28;20037;-51
2022/12/05 09:43:12;;;;;;;16.67;14.98;;;;;;;;;;5052619;28;20085;-49
2022/12/05 09:45:52;;;;;;;14.40;12.93;;;18.10;99.90;;;;;;5016461;28;20414;-49
2022/12/05 09:48:21;;;;;;;16.70;15.07;;;18.70;99.80;;;;;;5050490;28;20102;-49
2022/12/05 09:50:56;;;;;;;15.45;12.73;;;17.60;99.90;;;;;;5050258;28;20033;-50
2022/12/05 09:53:34;;;;;;;16.10;14.57;;;18.70;99.70;;;;;;5046756;28;20032;-50
2022/12/05 09:56:25;;;;;;;15.43;13.90;;;18.10;98.60;;;;;;5044886;28;20028;-51
2022/12/05 09:58:53;;;;;;;14.38;11.43;;;18.30;99.90;;;;;;5051092;28;20029;-47
2022/12/05 10:01:26;;;;;;;11.70;8.07;;;;;;;;;;5048969;28;20037;-49
2022/12/05 10:04:02;;;;;;;13.38;8.80;;;;;;;;;;5014686;28;20396;-50
2022/12/05 10:06:37;;;;;;;13.55;9.65;;;15.70;99.90;;;;;;5049927;28;20495;-51
2022/12/05 10:09:10;;;;;;;12.00;9.20;;;;;;;;;;5050058;28;20099;-52
2022/12/05 10:11:46;;;;;;;13.10;9.10;;;;;;;;;;5050308;28;20041;-50
2022/12/05 10:14:12;;;;;;;14.52;9.70;;;;;;;;;;5050036;28;20128;-51
2022/12/05 10:16:57;;;;;;;11.55;7.90;;;;;;;;;;5050471;28;20076;-49
2022/12/05 10:19:27;;;;;;;13.90;9.68;;;14.00;99.90;;;;;;5051104;28;20393;-50
2022/12/05 10:22:12;;;;;;;14.73;9.68;;;13.90;99.90;;;;;;5055185;28;20028;-51
2022/12/05 10:24:42;;;;;;;18.85;13.60;;;13.60;99.90;;;;;;5054325;28;20044;-52
2022/12/05 10:27:20;;;;;;;20.05;12.30;;;13.90;99.90;;;;;;5015636;28;20428;-50
2022/12/05 10:30:04;;;;;;;16.83;10.88;;;13.50;99.90;;;;;;5052098;28;20531;-51
2022/12/05 10:32:36;;;;;;;17.88;11.13;;;13.60;99.90;;;;;;5016625;28;20484;-49
2022/12/05 10:35:28;;;;;;;;;;;13.80;99.90;;;;;;5055127;28;20032;-49
2022/12/05 10:37:58;;;;;;;17.17;11.27;;;13.80;99.90;;;;;;5025399;28;19942;-50
2022/12/05 10:40:35;;;;;;;13.55;10.30;;;13.40;99.90;;;;;;5052407;28;20884;-55
2022/12/05 10:43:00;;;;;;;16.35;11.52;;;13.20;99.90;;;;;;5032923;28;20607;-50
2022/12/05 10:45:26;;;;;;;17.38;11.13;;;13.00;99.90;;;;;;5051294;28;20041;-49
2022/12/05 10:47:57;;;;;;;15.57;11.40;;;13.20;99.90;;;;;;5052068;28;20392;-52
2022/12/05 10:50:26;;;;;;;13.82;9.45;;;13.10;99.90;;;;;;5053900;28;20053;-50
2022/12/05 10:52:54;;;;;;;24.05;16.25;;;13.10;99.90;;;;;;5054932;28;20020;-50
2022/12/05 10:55:20;;;;;;;19.20;11.43;;;13.10;99.90;;;;;;5052239;28;20031;-50
2022/12/05 10:57:50;;;;;;;16.60;11.90;;;13.00;99.90;;;;;;5053663;28;20029;-51
2022/12/05 11:00:21;;;;;;;15.55;11.82;;;13.10;99.90;;;;;;5053215;28;20020;-50
2022/12/05 11:02:49;;;;;;;13.20;9.52;;;13.60;99.90;;;;;;5002680;28;20033;-49
2022/12/05 11:05:16;;;;;;;16.35;11.35;;;13.90;99.90;;;;;;5052318;28;20472;-49
2022/12/05 11:07:49;;;;;;;18.02;12.05;;;14.10;99.90;;;;;;5053499;28;20036;-51
2022/12/05 11:10:21;;;;;;;11.48;7.93;;;13.90;99.90;;;;;;5053695;28;20037;-47
2022/12/05 11:12:47;;;;;;;16.80;10.48;;;13.50;99.90;;;;;;5047232;28;20428;-50
2022/12/05 11:15:20;;;;;;;15.18;9.95;;;13.40;99.90;;;;;;5052090;28;20186;-49
2022/12/05 11:17:46;;;;;;;16.08;9.70;;;13.60;99.90;;;;;;5049898;28;20037;-50
2022/12/05 11:20:17;;;;;;;13.80;9.48;;;13.40;99.90;;;;;;5042576;28;20044;-51
2022/12/05 11:22:49;;;;;;;17.50;11.95;;;13.30;99.90;;;;;;5012413;28;20033;-56
2022/12/05 11:25:35;;;;;;;16.60;11.65;;;13.30;99.90;;;;;;5014787;28;20616;-51
2022/12/05 11:28:20;;;;;;;14.07;9.52;;;13.50;99.90;;;;;;4986972;28;20042;-51
2022/12/05 11:30:57;;;;;;;21.25;12.75;;;13.60;99.90;;;;;;4916213;28;20154;-52
2022/12/05 11:33:24;;;;;;;15.90;9.65;;;14.60;99.90;;;;;;4951042;28;20039;-51
2022/12/05 11:35:54;;;;;;;16.30;11.90;;;14.70;99.90;;;;;;4951453;28;20070;-54
2022/12/05 11:38:25;;;;;;;17.95;11.88;;;15.20;99.90;;;;;;4952073;28;20572;-52
2022/12/05 11:41:33;;;;;;;13.60;10.47;;;15.70;99.90;;;;;;4911770;29;20040;-53
2022/12/05 11:44:26;;;;;;;15.63;11.70;;;16.50;99.90;;;;;;4913778;29;20043;-53
2022/12/05 11:47:11;;;;;;;20.38;12.70;;;17.00;99.90;;;;;;4912397;29;21156;-52
2022/12/05 11:49:44;;;;;;;20.85;12.98;;;;;;;;;;4913370;29;20104;-52
2022/12/05 11:52:48;;;;;;;23.10;12.88;;;;;;;;;;4915406;29;20028;-52
2022/12/05 11:55:14;;;;;;;13.48;7.95;;;;;;;;;;4823353;29;20041;-52
2022/12/05 11:57:59;;;;;;;16.17;10.55;;;;;;;;;;4861456;29;20128;-53
2022/12/05 12:00:32;;;;;;;12.68;9.20;;;;;;;;;;4910250;29;20568;-52
2022/12/05 12:03:13;;;;;;;13.88;9.52;;;;;;;;;;4912621;29;20127;-52
2022/12/05 12:06:05;;;;;;;10.63;6.93;;;;;;;;;;4910436;29;21328;-52
2022/12/05 12:08:42;;;;;;;14.07;8.52;;;;;;;;;;4925692;29;20051;-53
2022/12/05 12:11:16;;;;;;;13.45;9.73;;;;;;;;;;4942420;28;20137;-51
2022/12/05 12:14:00;;;;;;;14.18;10.40;;;;;;;;;;4968098;28;20038;-53
2022/12/05 12:16:26;;;;;;;18.00;10.65;;;;;;;;;;4936359;29;20489;-52
2022/12/05 12:19:05;;;;;;;11.82;8.27;;;;;;;;;;4953351;28;20067;-52
2022/12/05 12:21:31;;;;;;;16.23;10.18;;;;;;;;;;4951498;28;20035;-52
2022/12/05 12:24:03;;;;;;;16.80;12.02;;;;;;;;;;4953346;28;20126;-52
2022/12/05 12:26:52;;;;;;;11.68;9.32;;;;;;;;;;4992765;28;20552;-51
2022/12/05 12:29:20;;;;;;;18.05;13.73;;;;;;;;;;5007849;28;20093;-52
2022/12/05 12:31:47;;;;;;;14.63;10.18;;;;;;;;;;5007716;28;20486;-51
2022/12/05 12:34:33;;;;;;;14.93;10.20;;;;;;;;;;5009905;28;20030;-52
2022/12/05 12:37:03;;;;;;;15.18;11.10;;;;;;;;;;5002995;28;20042;-51
2022/12/05 12:39:41;;;;;;;17.05;11.65;;;16.80;99.90;;;;;;5005157;28;20029;-51
2022/12/05 12:42:19;;;;;;;16.23;10.73;;;;;;;;;;5001688;28;20041;-52
2022/12/05 12:44:49;;;;;;;14.77;9.73;;;;;;;;;;4983509;28;20499;-51
2022/12/05 12:47:20;;;;;;;14.82;9.25;;;;;;;;;;5020886;28;20053;-51
2022/12/05 12:50:04;;;;;;;20.27;12.13;;;;;;;;;;5052308;28;20060;-52
2022/12/05 12:52:40;;;;;;;14.25;10.10;;;;;;;;;;5049204;28;20043;-51
2022/12/05 12:55:06;;;;;;;17.77;11.32;;;;;;;;;;5012202;28;20139;-52
2022/12/05 12:57:58;;;;;;;16.42;10.52;;;;;;;;;;5052427;28;20029;-52
2022/12/05 13:00:37;;;;;;;15.13;11.18;;;;;;;;;;5046842;28;20469;-52
2022/12/05 13:03:31;;;;;;;14.52;10.98;;;15.60;99.90;;;;;;4999800;28;20044;-52
2022/12/05 13:06:04;;;;;;;17.15;10.13;;;;;;;;;;5049752;28;20495;-52
2022/12/05 13:08:52;;;;;;;15.85;10.77;;;15.00;99.90;;;;;;5051562;28;20033;-51
2022/12/05 13:11:20;;;;;;;13.63;10.23;;;15.00;99.90;;;;;;5051021;28;20523;-52
2022/12/05 13:13:56;;;;;;;14.38;11.00;;;14.80;99.90;;;;;;5052227;28;20029;-52
2022/12/05 13:16:36;;;;;;;17.75;11.70;;;14.50;99.90;;;;;;5050938;28;20420;-52
2022/12/05 13:19:05;;;;;;;16.08;10.95;;;14.50;99.90;;;;;;5051770;28;20037;-52
2022/12/05 13:21:32;;;;;;;20.17;12.05;;;14.40;99.90;;;;;;5051842;28;20086;-53
2022/12/05 13:24:02;;;;;;;17.23;12.05;;;14.40;99.90;;;;;;5051047;28;20037;-52
2022/12/05 13:26:31;;;;;;;19.13;13.25;;;14.40;99.90;;;;;;5050566;28;20033;-52
2022/12/05 13:29:01;;;;;;;28.17;18.90;;;14.40;99.90;;;;;;5051915;28;20028;-52
2022/12/05 13:31:53;;;;;;;24.95;17.48;;;14.30;99.90;;;;;;5051530;28;20115;-52
2022/12/05 13:34:28;;;;;;;16.15;12.43;;;14.20;99.90;;;;;;5044182;28;20041;-52